Time;durP1;ratioP1;P1;durP2;ratioP2;P2;SDS_P1;SDS_P2;PMS_P1;PMS_P2;Temp;Humidity;BMP_temperature;BMP_pressure;BME280_temperature;BME280_humidity;BME280_pressure;Samples;Min_cycle;Max_cycle;Signal;HPM_P1;HPM_P2
2022/12/08 00:01:33;;;;;;;8.32;5.75;;;;;;;-8.70;77.29;100161.28;5026220;28;20048;-65
2022/12/08 00:04:00;;;;;;;12.95;7.45;;;;;;;-8.56;77.02;100180.59;5043290;28;20203;-65
2022/12/08 00:09:25;;;;;;;11.27;7.50;;;;;;;-8.51;76.67;100171.72;5026106;28;20030;-66
2022/12/08 00:12:02;;;;;;;13.23;7.00;;;;;;;-8.67;76.32;100126.34;5035905;28;20026;-64
2022/12/08 00:14:29;;;;;;;13.27;7.25;;;;;;;-8.35;77.42;100155.94;5030922;28;20376;-66
2022/12/08 00:16:54;;;;;;;11.45;7.38;;;;;;;-8.28;75.76;100147.09;5045614;28;20036;-66
2022/12/08 00:19:21;;;;;;;12.48;7.00;;;;;;;-8.39;76.31;100164.03;5026027;28;20025;-64
2022/12/08 00:21:48;;;;;;;11.35;6.32;;;;;;;-8.38;76.91;100154.84;5039996;28;20050;-65
2022/12/08 00:24:13;;;;;;;12.13;7.80;;;;;;;-8.28;76.72;100142.06;5034720;28;20045;-65
2022/12/08 00:26:39;;;;;;;12.10;7.20;;;;;;;-8.44;76.44;100141.97;5025574;28;20042;-64
2022/12/08 00:29:05;;;;;;;11.50;7.18;;;;;;;-8.47;77.15;100126.72;5027377;28;20033;-65
2022/12/08 00:31:30;;;;;;;12.75;7.88;;;;;;;-8.27;76.99;100133.78;5045787;28;20027;-65
2022/12/08 00:33:57;;;;;;;11.48;7.15;;;;;;;-8.16;75.33;100132.78;5028798;28;20029;-64
2022/12/08 00:36:23;;;;;;;12.63;7.47;;;;;;;-8.17;76.34;100126.03;5037823;28;20036;-64
2022/12/08 00:38:48;;;;;;;10.30;6.97;;;;;;;-8.14;76.06;100125.34;5038158;28;20030;-64
2022/12/08 00:41:17;;;;;;;13.25;8.07;;;;;;;-8.28;75.93;100111.09;5025537;28;20084;-64
2022/12/08 00:43:43;;;;;;;12.93;8.05;;;;;;;-8.19;76.09;100117.53;5028717;28;20030;-65
2022/12/08 00:46:09;;;;;;;14.63;7.30;;;;;;;-8.16;75.97;100117.72;5039006;28;20037;-66
2022/12/08 00:48:35;;;;;;;11.88;7.75;;;;;;;-8.21;75.70;100126.63;5032132;28;20313;-65
2022/12/08 00:51:00;;;;;;;16.10;8.18;;;;;;;-8.13;75.71;100131.25;5034273;28;20025;-65
2022/12/08 00:53:26;;;;;;;15.40;8.40;;;;;;;-8.09;75.91;100134.03;5041009;28;20033;-65
2022/12/08 00:55:52;;;;;;;13.45;7.38;;;;;;;-8.03;75.43;100114.28;5024923;28;20218;-65
2022/12/08 00:58:17;;;;;;;14.45;7.72;;;;;;;-7.95;75.17;100111.38;5035636;28;20022;-66
2022/12/08 01:00:43;;;;;;;12.68;8.02;;;;;;;-8.13;75.42;100122.06;5025135;28;20072;-63
2022/12/08 01:03:12;;;;;;;11.70;7.53;;;;;;;-8.40;76.33;100116.25;5035269;28;20095;-65
2022/12/08 01:05:38;;;;;;;14.05;7.85;;;;;;;-8.26;75.41;100117.94;5041649;28;20029;-65
2022/12/08 01:08:07;;;;;;;13.07;7.60;;;;;;;-8.25;75.21;100124.72;5025881;28;20048;-67
2022/12/08 01:10:38;;;;;;;11.60;7.65;;;;;;;-8.33;76.05;100118.34;5033255;28;20025;-66
2022/12/08 01:13:04;;;;;;;17.60;7.53;;;;;;;-8.33;75.82;100115.84;5042269;28;20032;-65
2022/12/08 01:15:30;;;;;;;10.70;7.18;;;;;;;-8.02;75.52;100117.69;5032017;28;20648;-66
2022/12/08 01:17:55;;;;;;;13.25;7.18;;;;;;;-8.42;75.90;100117.75;5024573;28;20049;-65
2022/12/08 01:20:21;;;;;;;13.15;7.68;;;;;;;-8.15;75.70;100116.09;5024680;28;20042;-65
2022/12/08 01:22:47;;;;;;;11.27;7.30;;;;;;;-8.35;75.63;100113.22;5040770;28;20032;-65
2022/12/08 01:25:12;;;;;;;12.18;7.00;;;;;;;-8.15;76.51;100108.56;5026044;28;20281;-65
2022/12/08 01:27:38;;;;;;;10.70;6.90;;;;;;;-8.30;75.92;100116.00;5024814;28;20052;-64
2022/12/08 01:30:05;;;;;;;13.57;6.72;;;;;;;-8.24;76.33;100113.88;5026006;28;20021;-65
2022/12/08 01:32:31;;;;;;;12.48;6.63;;;;;;;-8.12;76.20;100117.91;5035452;28;20049;-66
2022/12/08 01:34:56;;;;;;;10.00;7.15;;;;;;;-8.20;76.55;100112.41;5040600;28;20040;-65
2022/12/08 01:37:22;;;;;;;9.82;6.90;;;;;;;-8.09;75.95;100115.56;5042336;28;20044;-65
2022/12/08 01:39:47;;;;;;;9.93;6.35;;;;;;;-8.12;75.72;100126.31;5039176;28;20198;-65
2022/12/08 01:42:20;;;;;;;12.43;6.82;;;;;;;-8.40;76.77;100116.25;5026790;28;20025;-65
2022/12/08 01:45:01;;;;;;;10.82;6.55;;;;;;;-8.33;76.47;100128.38;5024146;28;20136;-65
2022/12/08 01:47:36;;;;;;;12.60;7.13;;;;;;;-8.38;77.11;100092.06;5027373;28;20117;-64
2022/12/08 01:50:05;;;;;;;12.93;7.75;;;;;;;-8.16;76.49;100117.72;5023941;28;20026;-65
2022/12/08 01:52:39;;;;;;;11.25;7.00;;;;;;;-8.23;77.07;100094.66;5027274;28;20025;-67
2022/12/08 01:55:19;;;;;;;12.02;7.45;;;;;;;-8.26;76.95;100107.91;5044083;28;20082;-66
2022/12/08 01:57:52;;;;;;;10.60;6.82;;;;;;;-8.22;76.91;100099.78;5023736;28;20029;-64
2022/12/08 02:00:20;;;;;;;12.10;7.40;;;;;;;-8.24;76.72;100091.25;5041488;28;20230;-66
2022/12/08 02:02:52;;;;;;;11.23;6.65;;;;;;;-8.17;77.60;100113.47;5038317;28;20017;-66
2022/12/08 02:05:21;;;;;;;11.05;7.55;;;;;;;-8.17;77.68;100128.53;5028332;28;20026;-64
2022/12/08 02:07:48;;;;;;;12.55;7.15;;;;;;;-7.98;77.54;100117.06;5029574;28;20187;-65
2022/12/08 02:10:18;;;;;;;9.27;6.30;;;;;;;-7.90;76.20;100123.44;5024916;28;20081;-66
2022/12/08 02:12:44;;;;;;;9.18;6.30;;;;;;;-8.22;77.00;100106.41;5043945;28;20097;-66
2022/12/08 02:15:10;;;;;;;12.05;6.82;;;;;;;-8.34;77.36;100106.56;5043220;28;20052;-65
2022/12/08 02:17:44;;;;;;;11.23;6.90;;;;;;;-8.10;77.40;100112.19;5031860;28;20234;-66
2022/12/08 02:20:22;;;;;;;13.20;6.90;;;;;;;-8.31;77.53;100091.66;5023764;28;20038;-66
2022/12/08 02:22:54;;;;;;;14.32;7.53;;;;;;;-8.21;77.23;100104.03;5034422;28;20022;-65
2022/12/08 02:25:19;;;;;;;10.38;7.00;;;;;;;-8.05;76.86;100109.94;5023580;28;20026;-66
2022/12/08 02:28:11;;;;;;;10.95;6.40;;;;;;;-8.06;77.10;100100.69;5023579;28;20022;-65
2022/12/08 02:30:53;;;;;;;10.57;6.90;;;;;;;-8.36;77.07;100078.84;5026714;28;20041;-65
2022/12/08 02:33:37;;;;;;;;;;;;;;;-8.07;77.11;100096.44;5044346;28;20021;-65
2022/12/08 02:36:23;;;;;;;9.18;5.82;;;;;;;-8.24;76.90;100111.34;5027853;28;20150;-64
2022/12/08 02:39:18;;;;;;;12.02;6.65;;;;;;;-8.28;77.31;100071.75;5036970;28;20079;-65
2022/12/08 02:41:56;;;;;;;9.90;6.15;;;;;;;-7.94;77.59;100101.41;5030431;28;20253;-65
2022/12/08 02:44:54;;;;;;;9.90;6.85;;;;;;;-7.86;77.21;100095.19;5033108;28;20067;-66
2022/12/08 02:47:22;;;;;;;9.60;6.82;;;;;;;-8.35;77.05;100054.59;5035926;28;20034;-65
2022/12/08 02:49:48;;;;;;;10.70;7.07;;;;;;;-8.04;77.05;100082.41;5028278;28;20036;-66
2022/12/08 02:52:13;;;;;;;12.60;6.32;;;;;;;-8.24;76.83;100073.69;5042741;28;20245;-65
2022/12/08 02:54:50;;;;;;;9.13;6.45;;;;;;;-8.20;76.64;100044.59;5023246;28;20033;-66
2022/12/08 02:57:41;;;;;;;8.38;6.75;;;;;;;-7.93;77.14;100073.00;5038321;28;20313;-64
2022/12/08 03:00:12;;;;;;;11.80;6.20;;;;;;;-8.01;76.19;100061.63;5024694;28;20033;-64
2022/12/08 03:02:59;;;;;;;10.70;7.07;;;;;;;-7.86;76.29;100075.09;5023320;28;20036;-63
2022/12/08 03:05:43;;;;;;;10.52;6.50;;;;;;;-7.95;76.13;100071.16;5023524;28;20033;-65
2022/12/08 03:08:46;;;;;;;8.70;6.28;;;;;;;-7.98;76.34;100071.84;5031225;28;20025;-64
2022/12/08 03:11:46;;;;;;;10.57;6.35;;;;;;;-7.98;76.12;100072.72;5025109;28;20033;-64
2022/12/08 03:14:16;;;;;;;9.25;6.40;;;;;;;-8.22;77.16;100038.59;5029754;28;20041;-64
2022/12/08 03:16:45;;;;;;;10.40;6.75;;;;;;;-8.24;76.35;100033.47;5021846;28;20222;-64
2022/12/08 03:19:18;;;;;;;11.52;6.78;;;;;;;-8.06;76.79;100028.69;5040889;28;20197;-65
2022/12/08 03:21:49;;;;;;;12.35;6.28;;;;;;;-8.13;76.40;100030.75;5027310;28;20018;-65
2022/12/08 03:24:16;;;;;;;7.43;4.95;;;;;;;-8.63;77.68;100009.44;5022944;28;20029;-65
2022/12/08 03:26:58;;;;;;;8.68;5.65;;;;;;;-8.35;77.92;100047.94;5034904;28;20192;-65
2022/12/08 03:29:24;;;;;;;11.15;6.90;;;;;;;-8.15;77.06;100049.13;5031517;28;20068;-66
2022/12/08 03:31:56;;;;;;;9.13;5.95;;;;;;;-8.15;77.61;100043.25;5037735;28;20022;-65
2022/12/08 03:34:26;;;;;;;9.85;6.47;;;;;;;-8.33;76.64;100035.47;5022909;28;20025;-65
2022/12/08 03:36:53;;;;;;;11.40;6.15;;;;;;;-8.40;77.49;100040.91;5023032;28;20030;-66
2022/12/08 03:39:18;;;;;;;13.00;6.80;;;;;;;-8.24;77.57;100035.13;5039748;28;20033;-64
2022/12/08 03:41:45;;;;;;;9.90;6.30;;;;;;;-8.06;77.27;100040.41;5031179;28;20029;-65
2022/12/08 03:44:11;;;;;;;9.95;5.78;;;;;;;-8.27;76.01;100038.34;5034131;28;20199;-66
2022/12/08 03:46:36;;;;;;;8.98;6.13;;;;;;;-8.24;76.57;100042.69;5043657;28;20029;-65
2022/12/08 03:49:02;;;;;;;10.45;6.82;;;;;;;-8.23;77.31;100046.94;5026484;28;20025;-65
2022/12/08 03:51:28;;;;;;;11.25;6.85;;;;;;;-8.15;76.87;100061.69;5026436;28;20203;-66
2022/12/08 03:53:53;;;;;;;9.15;6.43;;;;;;;-8.31;77.18;100036.41;5026068;28;20053;-64
2022/12/08 03:56:31;;;;;;;10.18;6.70;;;;;;;-8.36;76.82;100021.09;5026267;28;20021;-65
2022/12/08 03:58:58;;;;;;;9.95;6.95;;;;;;;-8.08;77.02;100049.47;5031778;28;20096;-64
2022/12/08 04:01:24;;;;;;;12.52;7.15;;;;;;;-8.18;76.79;100040.53;5044931;28;20025;-66
2022/12/08 04:03:50;;;;;;;13.48;6.55;;;;;;;-8.39;77.03;100030.09;5026111;28;20021;-65
2022/12/08 04:06:16;;;;;;;9.70;6.40;;;;;;;-8.33;76.76;100022.91;5042147;28;20329;-65
2022/12/08 04:08:41;;;;;;;10.23;6.38;;;;;;;-8.38;77.80;100026.78;5032487;28;20025;-66
2022/12/08 04:11:07;;;;;;;11.75;6.15;;;;;;;-8.20;77.96;100025.34;5026153;28;20044;-66
2022/12/08 04:13:35;;;;;;;10.45;6.95;;;;;;;-8.05;77.76;100032.94;5036962;28;20025;-65
2022/12/08 04:16:01;;;;;;;12.55;7.38;;;;;;;-8.08;76.69;100022.72;5025830;28;20049;-67
2022/12/08 04:18:26;;;;;;;10.10;6.88;;;;;;;-8.35;78.72;100021.94;5037589;28;20055;-64
2022/12/08 04:20:52;;;;;;;17.02;7.95;;;;;;;-8.16;78.89;100017.22;5033021;28;20026;-65
2022/12/08 04:23:17;;;;;;;12.82;7.70;;;;;;;-8.09;78.28;100015.06;5037560;28;20030;-65
2022/12/08 04:25:43;;;;;;;10.27;7.10;;;;;;;-8.08;78.13;100014.28;5029002;28;20096;-65
2022/12/08 04:28:09;;;;;;;13.60;7.88;;;;;;;-8.22;77.59;100014.38;5040696;28;20021;-65
2022/12/08 04:30:34;;;;;;;11.80;7.15;;;;;;;-8.21;78.68;100016.13;5033585;28;20045;-65
2022/12/08 04:33:00;;;;;;;11.63;6.93;;;;;;;-8.16;78.45;100016.38;5043486;28;20052;-65
2022/12/08 04:35:26;;;;;;;12.80;7.78;;;;;;;-8.25;79.16;100026.75;5036155;28;20045;-66
2022/12/08 04:37:52;;;;;;;14.05;7.40;;;;;;;-8.13;78.62;100016.56;5027748;28;20029;-65
2022/12/08 04:40:18;;;;;;;11.02;7.57;;;;;;;-8.04;79.81;100026.25;5025698;28;20038;-66
2022/12/08 04:42:43;;;;;;;15.82;7.70;;;;;;;-8.18;79.55;100021.31;5025408;28;20026;-65
2022/12/08 04:45:09;;;;;;;12.07;7.15;;;;;;;-8.77;79.49;100009.44;5040518;28;20056;-66
2022/12/08 04:47:35;;;;;;;12.00;7.43;;;;;;;-8.43;80.85;100025.66;5035342;28;20026;-66
2022/12/08 04:50:01;;;;;;;12.98;7.60;;;;;;;-8.29;80.34;100029.84;5031148;28;20269;-65
2022/12/08 04:52:26;;;;;;;16.35;7.43;;;;;;;-8.25;80.64;100010.78;5033363;28;20082;-66
2022/12/08 04:54:52;;;;;;;10.65;6.95;;;;;;;-8.28;79.91;100020.66;5032778;28;20025;-65
2022/12/08 04:57:17;;;;;;;10.52;7.68;;;;;;;-8.03;80.37;100022.97;5034080;28;20037;-65
2022/12/08 04:59:43;;;;;;;13.35;7.38;;;;;;;-8.17;80.84;100025.53;5041091;28;20029;-66
2022/12/08 05:02:08;;;;;;;11.02;6.30;;;;;;;-8.52;80.90;100024.34;5037968;28;20196;-66
2022/12/08 05:04:34;;;;;;;13.50;7.70;;;;;;;-8.33;81.70;100027.94;5027036;28;20060;-66
2022/12/08 05:07:00;;;;;;;14.85;7.95;;;;;;;-8.22;81.10;100026.94;5033681;28;20045;-65
2022/12/08 05:09:25;;;;;;;12.30;6.85;;;;;;;-8.28;80.87;100034.06;5039566;28;20029;-65
2022/12/08 05:11:51;;;;;;;14.07;6.93;;;;;;;-8.37;80.20;100016.81;5037054;28;20021;-65
2022/12/08 05:14:18;;;;;;;14.38;7.05;;;;;;;-8.43;81.23;100008.09;5036860;28;20054;-66
2022/12/08 05:16:45;;;;;;;11.85;7.13;;;;;;;-8.20;80.78;100005.25;5025140;28;20093;-65
2022/12/08 05:19:11;;;;;;;12.85;7.25;;;;;;;-8.01;81.11;100011.34;5025018;28;20022;-64
2022/12/08 05:21:37;;;;;;;14.02;7.63;;;;;;;-8.10;81.29;100011.69;5031571;28;20052;-65
2022/12/08 05:24:03;;;;;;;12.18;6.95;;;;;;;-8.26;80.33;99996.53;5030350;28;20322;-67
2022/12/08 05:26:29;;;;;;;11.98;7.00;;;;;;;-8.32;80.55;100005.41;5024428;28;20036;-65
2022/12/08 05:28:55;;;;;;;13.13;7.10;;;;;;;-8.57;80.38;99949.53;5025978;28;20373;-66
2022/12/08 05:31:20;;;;;;;11.25;6.20;;;;;;;-8.39;80.18;100010.84;5034680;28;20357;-67
2022/12/08 05:33:48;;;;;;;10.68;6.07;;;;;;;-8.35;80.82;100011.88;5023968;28;20026;-66
2022/12/08 05:36:15;;;;;;;10.30;5.03;;;;;;;-8.50;80.73;99994.31;5024248;28;20026;-67
2022/12/08 05:38:41;;;;;;;10.05;6.30;;;;;;;-8.17;80.45;100018.00;5029561;28;20336;-65
2022/12/08 05:41:08;;;;;;;11.60;6.55;;;;;;;-8.31;80.69;100016.31;5034713;28;20081;-64
2022/12/08 05:43:34;;;;;;;13.40;6.85;;;;;;;-8.32;80.45;100002.91;5032510;28;20192;-66
2022/12/08 05:46:00;;;;;;;14.02;6.32;;;;;;;-8.43;80.65;100003.91;5038375;28;20072;-68
2022/12/08 05:48:26;;;;;;;8.13;5.63;;;;;;;-8.41;80.86;99994.81;5027546;28;20053;-67
2022/12/08 05:50:52;;;;;;;10.80;6.70;;;;;;;-8.16;79.76;100003.81;5035715;28;20036;-65
2022/12/08 05:53:19;;;;;;;15.57;6.43;;;;;;;-8.36;79.43;100012.69;5036089;28;20032;-66
2022/12/08 05:55:45;;;;;;;11.52;6.13;;;;;;;-8.58;80.42;100006.44;5026421;28;20068;-65
2022/12/08 05:58:14;;;;;;;11.52;6.43;;;;;;;-8.29;79.55;100007.25;5043460;28;20049;-65
2022/12/08 06:00:40;;;;;;;10.65;6.78;;;;;;;-8.24;79.59;100008.38;5025530;28;20088;-66
2022/12/08 06:03:05;;;;;;;10.48;6.10;;;;;;;-8.63;79.87;100007.78;5037420;28;20036;-66
2022/12/08 06:05:33;;;;;;;14.85;6.82;;;;;;;-8.59;79.58;100002.16;5034342;28;20033;-67
2022/12/08 06:07:58;;;;;;;10.77;5.93;;;;;;;-8.44;79.56;100014.72;5037731;28;20030;-67
2022/12/08 06:10:24;;;;;;;12.32;6.55;;;;;;;-8.46;80.29;100000.38;5023854;28;20380;-65
2022/12/08 06:12:49;;;;;;;12.13;6.32;;;;;;;-8.33;79.61;100007.84;5043320;28;20383;-65
2022/12/08 06:15:15;;;;;;;10.90;5.90;;;;;;;-8.40;79.00;100004.09;5028399;28;20034;-66
2022/12/08 06:17:41;;;;;;;10.45;6.43;;;;;;;-8.45;79.76;100005.50;5022796;28;20044;-66
2022/12/08 06:20:07;;;;;;;11.90;6.65;;;;;;;-8.19;79.75;100007.00;5029556;28;20305;-65
2022/12/08 06:22:32;;;;;;;11.35;5.72;;;;;;;-8.50;79.53;100000.19;5030103;28;20068;-67
2022/12/08 06:24:58;;;;;;;12.52;5.80;;;;;;;-8.51;79.24;100003.50;5043360;28;20089;-68
2022/12/08 06:27:23;;;;;;;11.52;5.32;;;;;;;-8.48;80.36;100010.31;5027256;28;20033;-67
2022/12/08 06:29:49;;;;;;;7.65;4.40;;;;;;;-8.70;80.06;100001.50;5034795;28;20033;-67
2022/12/08 06:32:15;;;;;;;10.10;6.35;;;;;;;-8.58;80.01;99996.38;5036477;28;20068;-66
2022/12/08 06:34:40;;;;;;;12.35;6.32;;;;;;;-8.32;81.21;100007.06;5023625;28;20196;-66
2022/12/08 06:37:06;;;;;;;10.77;5.70;;;;;;;-8.52;80.27;100005.94;5023461;28;20029;-67
2022/12/08 06:39:31;;;;;;;11.82;6.65;;;;;;;-8.38;80.48;99992.50;5023606;28;20198;-66
2022/12/08 06:44:42;;;;;;;12.85;6.57;;;;;;;-8.24;80.64;100005.00;5042762;28;20039;-65
2022/12/08 06:47:07;;;;;;;13.43;7.00;;;;;;;-8.15;81.02;100008.06;5037694;28;20302;-67
2022/12/08 06:49:33;;;;;;;11.32;6.50;;;;;;;-8.39;80.53;99997.44;5024470;28;20040;-66
2022/12/08 06:51:58;;;;;;;10.13;6.10;;;;;;;-8.46;79.57;99991.22;5036590;28;20018;-66
2022/12/08 06:54:24;;;;;;;11.32;5.72;;;;;;;-8.53;79.80;99991.63;5023222;28;20026;-67
2022/12/08 06:56:50;;;;;;;10.40;6.20;;;;;;;-8.45;79.45;99997.09;5034026;28;20029;-68
2022/12/08 06:59:16;;;;;;;11.50;6.15;;;;;;;-8.25;79.55;100006.66;5036523;28;20034;-67
2022/12/08 07:01:42;;;;;;;15.63;7.25;;;;;;;-8.17;80.59;99997.91;5024709;28;20054;-67
2022/12/08 07:04:07;;;;;;;16.25;5.75;;;;;;;-8.42;79.55;99994.72;5027553;28;20072;-67
2022/12/08 07:06:33;;;;;;;13.13;6.53;;;;;;;-8.19;78.81;99996.09;5028071;28;20017;-66
2022/12/08 07:08:59;;;;;;;11.88;6.65;;;;;;;-8.16;79.72;99999.66;5027870;28;20032;-66
2022/12/08 07:11:24;;;;;;;12.70;7.30;;;;;;;-8.50;79.78;99980.13;5032108;28;20030;-67
2022/12/08 07:13:50;;;;;;;12.18;6.30;;;;;;;-8.17;80.24;99997.03;5033728;28;20037;-68
2022/12/08 07:16:15;;;;;;;11.98;5.72;;;;;;;-8.50;79.01;99997.69;5013567;28;20060;-67
2022/12/08 07:18:45;;;;;;;10.82;6.47;;;;;;;-8.21;78.58;99983.47;5032381;28;20105;-67
2022/12/08 07:21:13;;;;;;;9.52;5.63;;;;;;;-8.44;78.87;99988.78;5031406;28;20022;-67
2022/12/08 07:23:39;;;;;;;11.43;6.03;;;;;;;-8.18;78.59;99992.78;5039767;28;20096;-65
2022/12/08 07:26:09;;;;;;;9.65;6.25;;;;;;;-8.23;79.28;99971.59;5029968;28;20030;-67
2022/12/08 07:28:38;;;;;;;12.18;6.18;;;;;;;-8.20;77.63;99967.59;5032130;28;20222;-66
2022/12/08 07:31:05;;;;;;;12.70;6.70;;;;;;;-8.17;78.31;99987.84;5045343;28;20321;-66
2022/12/08 07:33:33;;;;;;;13.95;6.28;;;;;;;-8.12;77.79;99997.31;5029966;28;20037;-69
2022/12/08 07:36:00;;;;;;;8.65;6.20;;;;;;;-8.22;77.56;100003.44;5038314;28;20071;-69
2022/12/08 07:38:28;;;;;;;12.40;6.78;;;;;;;-8.14;77.83;99994.72;5038805;28;20036;-66
2022/12/08 07:40:53;;;;;;;11.55;6.22;;;;;;;-8.23;77.52;100004.22;5035427;28;20229;-68
2022/12/08 07:43:20;;;;;;;13.93;6.25;;;;;;;-8.10;77.40;99991.59;5046153;28;20049;-66
2022/12/08 07:45:47;;;;;;;8.95;6.15;;;;;;;-7.98;77.08;99996.47;5027699;28;20018;-68
2022/12/08 07:48:12;;;;;;;10.98;6.60;;;;;;;-7.83;76.99;100001.50;5040277;28;20018;-66
2022/12/08 07:50:38;;;;;;;10.25;6.28;;;;;;;-7.90;77.25;99990.22;5037305;28;20084;-67
2022/12/08 07:53:05;;;;;;;10.43;6.32;;;;;;;-7.92;77.22;99996.81;5017977;28;20021;-66
2022/12/08 07:55:32;;;;;;;11.45;6.05;;;;;;;-7.86;76.88;99977.06;5035231;28;20044;-66
2022/12/08 07:57:58;;;;;;;9.23;5.55;;;;;;;-7.96;77.08;99984.00;5027513;28;20049;-66
2022/12/08 08:00:23;;;;;;;11.35;6.10;;;;;;;-8.04;77.46;99978.53;5036796;28;20028;-67
2022/12/08 08:02:51;;;;;;;9.63;5.65;;;;;;;-8.08;76.96;99971.59;5029659;28;20022;-66
2022/12/08 08:05:17;;;;;;;11.95;6.38;;;;;;;-7.90;77.17;99972.63;5034309;28;20026;-66
2022/12/08 08:07:43;;;;;;;9.85;6.47;;;;;;;-7.68;77.73;99966.31;5036456;28;20030;-65
2022/12/08 08:10:10;;;;;;;10.20;5.78;;;;;;;-7.96;76.67;99934.59;5036664;28;20018;-65
2022/12/08 08:12:36;;;;;;;14.75;6.40;;;;;;;-7.85;76.61;99947.75;5040615;28;20076;-66
2022/12/08 08:15:04;;;;;;;10.98;6.53;;;;;;;-7.84;76.50;99965.47;5030090;28;20037;-65
2022/12/08 08:17:30;;;;;;;11.18;7.43;;;;;;;-7.62;77.32;99956.59;5035624;28;20329;-65
2022/12/08 08:19:56;;;;;;;10.45;6.85;;;;;;;-7.69;76.97;99955.38;5029021;28;20104;-64
2022/12/08 08:22:21;;;;;;;15.40;7.28;;;;;;;-7.81;76.26;99958.09;5034740;28;20018;-64
2022/12/08 08:24:47;;;;;;;11.18;7.18;;;;;;;-7.79;76.58;99963.19;5033325;28;20025;-67
2022/12/08 08:27:12;;;;;;;9.93;6.25;;;;;;;-7.52;77.18;99947.94;5030568;28;20025;-66
2022/12/08 08:29:38;;;;;;;14.05;6.68;;;;;;;-7.74;76.02;99944.19;5030234;28;20042;-67
2022/12/08 08:32:04;;;;;;;14.35;6.07;;;;;;;-7.59;76.14;99950.88;5036015;28;20044;-66
2022/12/08 08:34:30;;;;;;;10.20;5.90;;;;;;;-7.69;76.03;99950.38;5034197;28;20022;-67
2022/12/08 08:36:55;;;;;;;13.20;6.65;;;;;;;-7.63;76.53;99949.84;5033391;28;20078;-67
2022/12/08 08:39:21;;;;;;;12.60;6.65;;;;;;;-7.60;76.39;99944.13;5033100;28;20037;-66
2022/12/08 08:41:46;;;;;;;8.73;5.88;;;;;;;-7.70;76.04;99938.56;5034775;28;20033;-66
2022/12/08 08:44:13;;;;;;;12.45;5.93;;;;;;;-7.65;75.75;99967.34;5029508;28;20034;-66
2022/12/08 08:46:40;;;;;;;11.68;6.25;;;;;;;-7.62;77.26;99954.09;5044424;28;20030;-67
2022/12/08 08:49:06;;;;;;;14.70;6.72;;;;;;;-7.68;76.63;99951.22;5030927;28;20310;-67
2022/12/08 08:51:32;;;;;;;9.98;6.68;;;;;;;-7.57;76.39;99954.34;5029252;28;20060;-67
2022/12/08 08:53:58;;;;;;;9.52;6.50;;;;;;;-7.56;76.86;99949.38;5024740;28;20022;-68
2022/12/08 08:56:24;;;;;;;10.43;6.38;;;;;;;-7.58;76.61;99950.97;5037967;28;20067;-67
2022/12/08 08:58:52;;;;;;;13.05;7.03;;;;;;;-7.47;77.31;99952.44;5042547;28;20026;-70
2022/12/08 09:01:20;;;;;;;11.68;6.53;;;;;;;-7.55;77.17;99936.03;5034756;28;20093;-69
2022/12/08 09:03:47;;;;;;;12.43;7.40;;;;;;;-7.50;77.25;99927.09;5035036;28;20261;-65
2022/12/08 09:06:14;;;;;;;12.13;7.07;;;;;;;-7.56;76.21;99948.53;5035530;28;20026;-65
2022/12/08 09:08:41;;;;;;;10.73;6.78;;;;;;;-7.55;76.83;99928.50;5034693;28;20270;-69
2022/12/08 09:11:07;;;;;;;11.82;7.30;;;;;;;-7.33;76.61;99948.13;5033877;28;20026;-67
2022/12/08 09:13:33;;;;;;;10.15;6.40;;;;;;;-7.54;76.73;99944.44;5041696;28;20033;-68
2022/12/08 09:16:01;;;;;;;11.23;7.00;;;;;;;-7.57;76.78;99931.72;5024670;28;20116;-68
2022/12/08 09:18:48;;;;;;;13.75;6.97;;;;;;;-7.40;76.85;99942.69;5025958;28;20030;-68
2022/12/08 09:21:19;;;;;;;11.23;6.32;;;;;;;-7.44;77.03;99956.72;5036619;28;20033;-68
2022/12/08 09:23:45;;;;;;;11.35;6.85;;;;;;;-7.64;77.67;99956.53;5032927;28;20214;-69
2022/12/08 09:26:11;;;;;;;13.45;6.95;;;;;;;-7.50;77.99;99956.41;5036532;28;20026;-68
2022/12/08 09:28:37;;;;;;;12.63;7.78;;;;;;;-7.45;77.85;99962.56;5034035;28;20025;-68
2022/12/08 09:31:03;;;;;;;11.75;6.97;;;;;;;-7.41;78.50;99936.81;5024353;28;20036;-68
2022/12/08 09:33:29;;;;;;;13.65;6.75;;;;;;;-7.35;78.00;99943.81;5024176;28;20026;-68
2022/12/08 09:35:55;;;;;;;13.93;7.18;;;;;;;-7.26;78.04;99934.25;5031625;28;20044;-68
2022/12/08 09:38:20;;;;;;;10.93;7.13;;;;;;;-7.16;77.80;99930.56;5034385;28;20026;-66
2022/12/08 09:40:53;;;;;;;10.55;6.28;;;;;;;-7.15;77.00;99934.81;5036539;28;20060;-67
2022/12/08 09:43:40;;;;;;;12.40;6.85;;;;;;;-7.24;76.87;99925.09;5024158;28;20026;-66
2022/12/08 09:46:09;;;;;;;12.85;7.13;;;;;;;-7.17;76.84;99924.69;5029170;28;20105;-68
2022/12/08 09:48:39;;;;;;;14.07;7.07;;;;;;;-7.39;77.11;99907.56;5029345;28;20037;-66
2022/12/08 09:51:05;;;;;;;13.90;7.47;;;;;;;-7.30;77.53;99918.09;5026880;28;20106;-67
2022/12/08 09:53:40;;;;;;;10.88;6.40;;;;;;;-7.17;77.86;99901.16;5033232;28;20021;-66
2022/12/08 09:56:20;;;;;;;11.18;6.93;;;;;;;-7.17;77.43;99899.53;5031294;28;20052;-66
2022/12/08 09:58:55;;;;;;;16.65;7.40;;;;;;;-6.97;76.63;99900.56;5031447;28;20079;-66
2022/12/08 10:01:22;;;;;;;13.23;7.90;;;;;;;-6.97;77.26;99913.16;5034887;28;20018;-66
2022/12/08 10:03:48;;;;;;;11.25;7.20;;;;;;;-6.85;77.58;99912.06;5032829;28;20230;-67
2022/12/08 10:06:24;;;;;;;12.57;7.43;;;;;;;-6.81;76.70;99922.34;5032830;28;20049;-68
2022/12/08 10:08:55;;;;;;;14.25;8.50;;;;;;;-6.80;78.03;99911.50;5033597;28;20333;-66
2022/12/08 10:11:39;;;;;;;;;;;;;;;-6.99;78.41;99908.81;5026763;28;20296;-69
2022/12/08 10:14:17;;;;;;;13.45;7.18;;;;;;;-7.06;78.74;99914.31;5033719;28;19956;-68
2022/12/08 10:16:48;;;;;;;14.00;8.10;;;;;;;-6.90;78.70;99895.84;5034048;28;20025;-67
2022/12/08 10:19:17;;;;;;;10.82;7.45;;;;;;;-6.89;78.72;99897.56;5032584;28;20029;-67
2022/12/08 10:21:44;;;;;;;14.25;8.52;;;;;;;-7.12;79.33;99912.34;5032806;28;20063;-68
2022/12/08 10:24:25;;;;;;;12.48;7.53;;;;;;;-6.90;79.89;99900.88;5032310;28;20025;-66
2022/12/08 10:26:53;;;;;;;12.40;8.40;;;;;;;-6.92;78.73;99917.56;5033443;28;20308;-67
2022/12/08 10:29:18;;;;;;;12.65;7.72;;;;;;;-6.79;79.19;99914.88;5033508;28;20076;-66
2022/12/08 10:31:44;;;;;;;13.23;8.48;;;;;;;-6.76;78.59;99913.38;5034385;28;20021;-67
2022/12/08 10:34:24;;;;;;;14.05;8.48;;;;;;;-6.90;78.58;99911.78;5033452;28;20033;-67
2022/12/08 10:36:55;;;;;;;16.45;8.63;;;;;;;-6.74;78.11;99915.09;5032729;28;20032;-67
2022/12/08 10:39:44;;;;;;;11.02;7.25;;;;;;;-6.97;77.66;99942.47;5041039;28;20021;-68
2022/12/08 10:42:12;;;;;;;8.10;5.75;;;;;;;-7.15;77.70;99922.25;5033616;28;20021;-69
2022/12/08 10:45:01;;;;;;;13.70;8.20;;;;;;;-7.02;77.71;99911.19;5032887;28;20045;-67
2022/12/08 10:47:38;;;;;;;15.95;8.07;;;;;;;-7.02;78.93;99911.19;5010738;28;20029;-68
2022/12/08 10:50:08;;;;;;;13.38;8.98;;;;;;;-6.95;79.29;99926.66;5005812;28;20225;-67
2022/12/08 10:52:39;;;;;;;13.73;8.83;;;;;;;-7.06;79.87;99890.00;5005276;28;20045;-68
2022/12/08 10:55:17;;;;;;;14.05;7.82;;;;;;;-7.09;79.45;99902.44;5021549;28;20325;-67
2022/12/08 10:57:42;;;;;;;12.98;7.95;;;;;;;-7.24;79.84;99941.88;5005504;28;20109;-69
2022/12/08 11:00:18;;;;;;;14.07;10.13;;;;;;;-7.28;80.86;99890.53;5034893;28;20210;-67
2022/12/08 11:02:53;;;;;;;14.70;9.57;;;;;;;-7.12;81.07;99895.56;5034854;28;20026;-68
2022/12/08 11:05:21;;;;;;;15.85;9.07;;;;;;;-7.07;81.87;99915.94;5022775;28;20029;-67
2022/12/08 11:07:52;;;;;;;14.27;9.00;;;;;;;-7.09;82.27;99904.94;5023214;28;20022;-68
2022/12/08 11:10:25;;;;;;;16.27;9.70;;;;;;;-7.03;81.13;99929.56;5035663;28;20603;-68
2022/12/08 11:12:51;;;;;;;11.15;7.82;;;;;;;-6.95;81.17;99918.25;5040907;28;20205;-67
2022/12/08 11:15:17;;;;;;;15.15;8.48;;;;;;;-6.92;81.46;99918.41;5027645;28;20057;-67
2022/12/08 11:17:46;;;;;;;12.60;8.52;;;;;;;-6.98;81.37;99913.94;5030208;28;20029;-66
2022/12/08 11:20:12;;;;;;;12.60;8.35;;;;;;;-6.94;81.58;99912.41;5031897;28;20058;-67
2022/12/08 11:22:45;;;;;;;14.48;8.65;;;;;;;-7.06;81.13;99890.00;5031424;28;20033;-68
2022/12/08 11:25:18;;;;;;;15.23;9.05;;;;;;;-7.04;80.78;99917.75;5031824;28;20039;-68
2022/12/08 11:27:47;;;;;;;14.35;9.30;;;;;;;-6.95;81.66;99898.13;5031990;28;20033;-69
2022/12/08 11:30:22;;;;;;;13.93;8.60;;;;;;;-6.83;81.17;99898.75;5028862;28;20041;-66
2022/12/08 11:32:52;;;;;;;17.02;8.88;;;;;;;-7.03;79.47;99881.75;5035387;28;20017;-67
2022/12/08 11:35:24;;;;;;;15.43;8.25;;;;;;;-7.01;79.75;99870.09;5038307;28;20330;-67